Time;durP1;ratioP1;P1;durP2;ratioP2;P2;SDS_P1;SDS_P2;PMS_P1;PMS_P2;Temp;Humidity;BMP_temperature;BMP_pressure;BME280_temperature;BME280_humidity;BME280_pressure;Samples;Min_cycle;Max_cycle;Signal;HPM_P1;HPM_P2
2022/10/28 00:00:49;;;;;;;12.00;8.48;;;;;;;11.67;100.00;100907.70;1761353;81;21035;-71
2022/10/28 00:03:16;;;;;;;13.80;8.58;;;;;;;11.66;100.00;100900.66;1758972;81;21040;-78
2022/10/28 00:05:43;;;;;;;11.97;8.30;;;;;;;11.66;100.00;100901.48;1761681;81;21104;-74
2022/10/28 00:08:10;;;;;;;12.95;9.30;;;;;;;11.67;100.00;100902.31;1759199;81;21041;-75
2022/10/28 00:10:36;;;;;;;10.75;9.13;;;;;;;11.67;100.00;100907.19;1761783;81;20986;-74
2022/10/28 00:13:03;;;;;;;14.28;8.95;;;;;;;11.66;100.00;100897.97;1761628;81;21487;-73
2022/10/28 00:15:30;;;;;;;14.45;9.50;;;;;;;11.63;100.00;100902.47;1762139;81;21082;-71
2022/10/28 00:17:56;;;;;;;9.83;8.38;;;;;;;11.60;100.00;100905.64;1732458;81;21820;-72
2022/10/28 00:20:23;;;;;;;7.87;7.08;;;;;;;11.58;100.00;100901.81;1762214;81;20953;-73
2022/10/28 00:22:49;;;;;;;10.72;8.53;;;;;;;11.58;100.00;100907.72;1761801;81;20928;-71
2022/10/28 00:25:23;;;;;;;9.65;8.75;;;;;;;11.57;100.00;100905.55;1760393;81;20987;-72
2022/10/28 00:27:45;;;;;;;9.73;8.10;;;;;;;11.57;100.00;100905.55;1734236;81;20967;-71
2022/10/28 00:30:11;;;;;;;11.50;8.98;;;;;;;11.57;100.00;100912.28;1769607;80;21094;-72
2022/10/28 00:32:38;;;;;;;10.80;7.75;;;;;;;11.56;100.00;100912.53;1725252;81;21099;-72
2022/10/28 00:35:06;;;;;;;12.15;8.60;;;;;;;11.55;100.00;100916.27;1767025;81;21057;-71
2022/10/28 00:37:34;;;;;;;11.20;8.93;;;;;;;11.51;100.00;100915.88;1755444;81;21003;-72
2022/10/28 00:40:00;;;;;;;8.93;8.03;;;;;;;11.50;100.00;100919.64;1749272;81;21042;-72
2022/10/28 00:42:27;;;;;;;11.93;8.55;;;;;;;11.50;100.00;100920.16;1756681;81;21251;-72
2022/10/28 00:45:00;;;;;;;9.60;8.70;;;;;;;11.48;100.00;100923.07;1757142;80;20986;-72
2022/10/28 00:47:46;;;;;;;14.23;9.38;;;;;;;11.49;100.00;100925.24;1764187;80;20979;-71
2022/10/28 00:50:34;;;;;;;10.93;8.33;;;;;;;11.49;100.00;100922.55;1731577;81;21018;-71
2022/10/28 00:53:04;;;;;;;10.65;9.10;;;;;;;11.48;100.00;100923.59;1764293;80;21062;-72
2022/10/28 00:55:30;;;;;;;10.40;8.58;;;;;;;11.47;100.00;100920.07;1764421;80;21778;-72
2022/10/28 00:57:58;;;;;;;11.38;8.08;;;;;;;11.47;100.00;100926.81;1763706;81;20967;-80
2022/10/28 01:00:24;;;;;;;13.85;8.13;;;;;;;11.50;100.00;100922.86;1758802;81;21504;-82
2022/10/28 01:02:51;;;;;;;11.35;8.13;;;;;;;11.49;100.00;100924.72;1760242;81;21551;-82
2022/10/28 01:05:23;;;;;;;10.13;8.73;;;;;;;11.49;100.00;100923.38;1747559;81;22388;-81
2022/10/28 01:07:51;;;;;;;9.35;8.48;;;;;;;11.50;100.00;100929.07;1763188;81;21119;-80
2022/10/28 01:10:19;;;;;;;7.78;7.08;;;;;;;11.51;100.00;100925.86;1759307;80;21015;-69
2022/10/28 01:13:06;;;;;;;11.03;8.45;;;;;;;11.50;100.00;100925.03;1764011;80;20991;-67
2022/10/28 01:15:52;;;;;;;10.18;7.95;;;;;;;11.48;100.00;100929.81;1745228;81;21622;-71
2022/10/28 01:18:45;;;;;;;8.88;8.00;;;;;;;11.47;100.00;100930.02;1753014;80;21037;-71
2022/10/28 01:21:29;;;;;;;11.08;9.78;;;;;;;11.48;100.00;100932.50;1754483;81;22489;-69
2022/10/28 01:24:18;;;;;;;11.25;8.00;;;;;;;11.48;100.00;100933.84;1710421;81;21086;-69
2022/10/28 01:27:23;;;;;;;10.35;8.53;;;;;;;11.51;100.00;100935.28;1759385;80;25002;-70
2022/10/28 01:30:11;;;;;;;9.33;7.22;;;;;;;11.54;99.95;100928.09;1734820;81;20959;-72
2022/10/28 01:33:10;;;;;;;10.80;8.10;;;;;;;11.54;99.79;100926.22;1762249;80;22248;-74
2022/10/28 01:35:43;;;;;;;8.88;7.97;;;;;;;11.51;99.58;100929.34;1699903;81;21331;-69
2022/10/28 01:38:25;;;;;;;10.57;8.47;;;;;;;11.49;99.50;100923.90;1763842;81;21010;-72
2022/10/28 01:41:00;;;;;;;11.75;7.58;;;;;;;11.47;99.50;100920.59;1763830;80;20979;-73
2022/10/28 01:44:04;;;;;;;12.93;6.72;;;;;;;11.47;99.52;100927.33;1761017;81;21072;-73
2022/10/28 01:46:40;;;;;;;8.18;7.03;;;;;;;11.45;99.51;100924.05;1728232;82;21499;-72
2022/10/28 01:49:18;;;;;;;8.15;7.35;;;;;;;11.46;99.54;100925.70;1716930;83;21520;-73
2022/10/28 01:51:52;;;;;;;14.70;8.80;;;;;;;11.46;99.41;100925.19;1688006;83;21018;-75
2022/10/28 01:54:23;;;;;;;13.70;8.83;;;;;;;11.43;99.28;100925.61;1723190;83;21079;-73
2022/10/28 01:56:50;;;;;;;10.90;8.53;;;;;;;11.42;99.23;100923.97;1763679;81;21043;-74
2022/10/28 01:59:21;;;;;;;12.80;7.62;;;;;;;11.39;99.31;100923.08;1763888;81;22188;-75
2022/10/28 02:01:48;;;;;;;7.95;7.15;;;;;;;11.39;99.40;100927.12;1761923;80;21778;-71
2022/10/28 02:04:16;;;;;;;8.80;7.72;;;;;;;11.42;99.49;100932.56;1763389;80;21115;-78
2022/10/28 02:06:44;;;;;;;9.10;7.40;;;;;;;11.43;99.38;100928.31;1761303;80;21014;-79
2022/10/28 02:09:23;;;;;;;10.95;7.55;;;;;;;11.44;99.41;100931.83;1739191;81;21459;-83
2022/10/28 02:12:10;;;;;;;15.85;9.05;;;;;;;11.43;99.29;100924.27;1737043;81;21037;-74
2022/10/28 02:14:58;;;;;;;9.75;6.87;;;;;;;11.41;99.24;100925.04;1762119;80;21996;-73
2022/10/28 02:18:01;;;;;;;8.75;7.37;;;;;;;11.39;99.13;100921.73;1763838;80;20967;-73
2022/10/28 02:20:45;;;;;;;7.65;6.95;;;;;;;11.39;99.27;100920.39;1764222;81;21502;-74
2022/10/28 02:23:29;;;;;;;9.48;7.95;;;;;;;11.40;99.30;100925.25;1740763;81;21531;-73
2022/10/28 02:26:33;;;;;;;13.78;8.85;;;;;;;11.40;99.24;100921.21;1726987;83;21569;-73
2022/10/28 02:29:06;;;;;;;;;;;;;;;11.40;99.22;100923.39;1703389;84;21162;-71
2022/10/28 02:31:41;;;;;;;9.18;7.00;;;;;;;11.39;99.15;100917.69;1724962;82;20124;-73
2022/10/28 02:34:13;;;;;;;11.45;8.68;;;;;;;11.36;99.12;100923.02;1713011;83;21035;-71
2022/10/28 02:36:43;;;;;;;12.63;8.58;;;;;;;11.35;99.09;100926.75;1692126;82;21097;-73
2022/10/28 02:39:10;;;;;;;9.73;8.38;;;;;;;11.34;99.14;100929.66;1686455;84;21642;-72
2022/10/28 02:41:44;;;;;;;11.22;7.60;;;;;;;11.35;99.22;100932.14;1682533;82;22117;-71
2022/10/28 02:44:14;;;;;;;10.53;8.15;;;;;;;11.36;99.22;100927.06;1680189;84;21006;-68
2022/10/28 02:46:44;;;;;;;9.75;8.80;;;;;;;11.40;99.27;100923.39;1680322;85;21191;-71
2022/10/28 02:49:11;;;;;;;9.53;8.53;;;;;;;11.45;99.18;100924.88;1630590;85;21421;-73
2022/10/28 02:51:47;;;;;;;12.47;8.60;;;;;;;11.49;98.96;100928.77;1677553;85;21126;-72
2022/10/28 02:54:21;;;;;;;10.75;9.65;;;;;;;11.50;98.65;100931.77;1676174;84;21230;-72
2022/10/28 02:56:58;;;;;;;9.70;7.87;;;;;;;11.49;98.30;100928.77;1697617;84;21577;-72
2022/10/28 02:59:24;;;;;;;9.15;8.25;;;;;;;11.48;98.26;100934.38;1680342;85;21141;-73
2022/10/28 03:01:51;;;;;;;10.15;7.83;;;;;;;11.47;98.27;100925.46;1677483;85;20990;-73
2022/10/28 03:04:18;;;;;;;9.73;8.13;;;;;;;11.50;98.18;100929.59;1679601;85;21005;-72
2022/10/28 03:06:46;;;;;;;10.98;9.38;;;;;;;11.52;98.26;100923.44;1679528;85;21079;-73
2022/10/28 03:09:12;;;;;;;8.28;7.47;;;;;;;11.56;98.07;100930.05;1680110;85;21019;-73
2022/10/28 03:11:39;;;;;;;14.70;8.88;;;;;;;11.55;97.63;100922.48;1691013;84;21079;-73
2022/10/28 03:14:06;;;;;;;12.35;8.53;;;;;;;11.52;97.58;100918.05;1681903;83;21109;-72
2022/10/28 03:16:32;;;;;;;9.20;7.92;;;;;;;11.52;97.55;100924.78;1678686;85;21122;-70
2022/10/28 03:18:59;;;;;;;12.05;8.30;;;;;;;11.50;97.49;100927.72;1655935;83;21240;-72
2022/10/28 03:21:27;;;;;;;13.45;9.20;;;;;;;11.48;97.45;100920.38;1732867;81;20952;-72
2022/10/28 03:23:53;;;;;;;13.93;8.35;;;;;;;11.49;97.50;100921.20;1663369;83;21610;-71
2022/10/28 03:26:20;;;;;;;12.10;8.43;;;;;;;11.50;97.57;100921.52;1738439;81;21082;-72
2022/10/28 03:28:46;;;;;;;11.93;8.83;;;;;;;11.51;97.39;100923.16;1728046;81;21058;-73
2022/10/28 03:31:14;;;;;;;12.37;11.05;;;;;;;11.51;97.38;100922.61;1713760;81;21242;-72
2022/10/28 03:33:40;;;;;;;15.43;9.83;;;;;;;11.54;97.27;100923.53;1720572;81;21023;-72
2022/10/28 03:36:07;;;;;;;14.33;9.75;;;;;;;11.51;97.02;100926.66;1732862;80;21038;-72
2022/10/28 03:38:34;;;;;;;13.83;9.08;;;;;;;11.50;97.03;100925.55;1760519;80;21027;-73
2022/10/28 03:41:00;;;;;;;14.28;9.13;;;;;;;11.49;96.98;100927.42;1756760;81;21528;-74
2022/10/28 03:43:27;;;;;;;14.63;9.98;;;;;;;11.49;97.07;100923.38;1702666;83;21571;-73
2022/10/28 03:45:53;;;;;;;16.30;9.83;;;;;;;11.54;97.12;100922.70;1702060;83;21016;-73
2022/10/28 03:48:20;;;;;;;11.97;10.03;;;;;;;11.58;96.91;100924.71;1674922;85;21168;-73
2022/10/28 03:50:46;;;;;;;14.55;9.60;;;;;;;11.57;96.55;100922.23;1712878;83;21031;-73
2022/10/28 03:53:14;;;;;;;10.80;9.18;;;;;;;11.56;96.48;100915.23;1713827;83;21027;-74
2022/10/28 03:55:41;;;;;;;13.00;10.00;;;;;;;11.53;96.18;100923.22;1711574;83;21148;-74
2022/10/28 03:58:07;;;;;;;14.10;9.23;;;;;;;11.50;96.23;100920.16;1707967;83;20967;-73
2022/10/28 04:00:33;;;;;;;11.53;9.90;;;;;;;11.50;96.28;100920.16;1686508;84;20971;-72
2022/10/28 04:03:00;;;;;;;12.58;10.70;;;;;;;11.49;96.32;100919.86;1702490;83;22153;-74
2022/10/28 04:05:26;;;;;;;13.15;11.38;;;;;;;11.53;96.37;100915.66;1697007;84;21062;-74
2022/10/28 04:07:54;;;;;;;17.40;10.20;;;;;;;11.57;96.41;100910.94;1737033;82;21064;-73
2022/10/28 04:10:21;;;;;;;13.62;9.80;;;;;;;11.60;96.16;100915.06;1707144;83;21037;-76
2022/10/28 04:12:47;;;;;;;15.78;12.05;;;;;;;11.58;96.07;100912.59;1714235;83;20984;-74
2022/10/28 04:15:14;;;;;;;11.33;9.93;;;;;;;11.57;96.03;100910.94;1714541;83;21056;-75
2022/10/28 04:17:42;;;;;;;12.07;9.43;;;;;;;11.57;96.08;100920.37;1704166;83;21063;-76
2022/10/28 04:20:10;;;;;;;11.68;10.48;;;;;;;11.56;96.09;100916.58;1726069;83;21343;-74
2022/10/28 04:22:36;;;;;;;13.93;9.80;;;;;;;11.56;96.13;100920.06;1713209;83;21039;-76
2022/10/28 04:25:03;;;;;;;12.65;9.75;;;;;;;11.55;96.24;100922.48;1703123;83;21063;-73
2022/10/28 04:27:30;;;;;;;15.08;11.18;;;;;;;11.57;96.19;100919.02;1686592;83;21057;-71
2022/10/28 04:29:57;;;;;;;15.03;10.28;;;;;;;11.56;96.22;100922.76;1715032;83;21054;-72
2022/10/28 04:32:23;;;;;;;10.98;9.83;;;;;;;11.59;96.25;100930.41;1731384;82;21881;-72
2022/10/28 04:34:50;;;;;;;14.95;9.80;;;;;;;11.58;96.08;100927.41;1701622;83;21535;-72
2022/10/28 04:37:17;;;;;;;12.25;9.33;;;;;;;11.54;96.01;100924.87;1714729;83;21640;-75
2022/10/28 04:39:43;;;;;;;10.58;9.48;;;;;;;11.50;96.09;100928.24;1748685;80;21043;-72
2022/10/28 04:42:10;;;;;;;11.08;9.58;;;;;;;11.48;96.17;100924.94;1762981;80;21062;-73
2022/10/28 04:44:37;;;;;;;13.50;9.88;;;;;;;11.45;96.39;100924.05;1751514;81;21547;-74
2022/10/28 04:47:04;;;;;;;12.10;10.05;;;;;;;11.46;96.63;100920.31;1762224;80;21043;-73
2022/10/28 04:49:31;;;;;;;12.00;8.78;;;;;;;11.48;96.66;100922.25;1748476;81;21023;-75
2022/10/28 04:51:57;;;;;;;14.80;10.03;;;;;;;11.46;96.48;100921.14;1766980;80;21045;-74
2022/10/28 04:54:25;;;;;;;12.98;10.28;;;;;;;11.43;96.59;100917.53;1735827;82;21023;-75
2022/10/28 04:56:53;;;;;;;10.80;9.35;;;;;;;11.40;96.66;100918.52;1767278;80;21622;-74
2022/10/28 04:59:20;;;;;;;15.58;9.03;;;;;;;11.37;96.79;100921.95;1766394;80;21578;-72
2022/10/28 05:01:46;;;;;;;13.45;9.35;;;;;;;11.34;96.91;100915.67;1766407;80;21008;-71
2022/10/28 05:04:13;;;;;;;14.35;10.50;;;;;;;11.37;97.23;100917.08;1737695;82;21114;-74
2022/10/28 05:06:41;;;;;;;13.15;9.48;;;;;;;11.37;97.33;100912.52;1712097;82;21551;-73
2022/10/28 05:09:08;;;;;;;18.87;11.75;;;;;;;11.41;97.40;100912.91;1737663;82;21337;-75
2022/10/28 05:11:36;;;;;;;18.82;11.20;;;;;;;11.45;97.48;100928.09;1720750;82;21555;-74
2022/10/28 05:14:03;;;;;;;21.27;10.65;;;;;;;11.44;97.30;100925.92;1728237;82;21595;-77
2022/10/28 05:16:30;;;;;;;17.35;10.35;;;;;;;11.44;97.33;100930.48;1731430;82;21034;-75
2022/10/28 05:18:57;;;;;;;12.23;9.83;;;;;;;11.45;97.32;100930.80;1737565;82;21053;-74
2022/10/28 05:21:26;;;;;;;15.90;10.48;;;;;;;11.44;97.37;100932.66;1742878;82;21512;-76
2022/10/28 05:23:55;;;;;;;19.92;10.78;;;;;;;11.48;97.55;100927.63;1762141;80;21055;-74
2022/10/28 05:26:21;;;;;;;14.65;11.75;;;;;;;11.54;97.57;100929.44;1742582;81;21104;-75
2022/10/28 05:28:49;;;;;;;14.28;10.85;;;;;;;11.61;97.52;100936.38;1766208;80;21078;-75
2022/10/28 05:31:16;;;;;;;12.15;10.20;;;;;;;11.61;97.06;100932.86;1766425;81;21187;-75
2022/10/28 05:33:44;;;;;;;13.20;11.35;;;;;;;11.57;96.64;100942.45;1768968;80;21070;-73
2022/10/28 05:36:11;;;;;;;15.20;11.38;;;;;;;11.49;96.54;100928.77;1766851;80;20966;-79
2022/10/28 05:38:39;;;;;;;13.90;10.53;;;;;;;11.44;96.47;100938.05;1759918;81;21073;-74
2022/10/28 05:41:13;;;;;;;12.00;10.72;;;;;;;11.40;96.58;100942.77;1756592;80;20991;-78
2022/10/28 05:43:40;;;;;;;13.98;10.82;;;;;;;11.36;96.78;100935.14;1764664;80;21463;-75
2022/10/28 05:46:08;;;;;;;18.98;12.45;;;;;;;11.37;96.79;100938.63;1763030;81;21071;-77
2022/10/28 05:48:36;;;;;;;17.62;11.33;;;;;;;11.35;96.75;100940.22;1741283;80;20967;-76
2022/10/28 05:51:03;;;;;;;13.35;10.85;;;;;;;11.34;96.74;100942.61;1760416;80;20992;-77
2022/10/28 05:53:29;;;;;;;13.60;10.90;;;;;;;11.33;96.81;100942.30;1745580;81;20959;-74
2022/10/28 05:55:56;;;;;;;12.63;11.00;;;;;;;11.31;96.76;100941.72;1760708;80;21146;-76
2022/10/28 05:58:30;;;;;;;16.60;10.28;;;;;;;11.31;96.87;100940.89;1732163;80;21236;-77
2022/10/28 06:01:00;;;;;;;15.43;12.33;;;;;;;11.32;96.98;100944.69;1755701;81;21060;-76
2022/10/28 06:03:27;;;;;;;14.43;11.08;;;;;;;11.31;96.87;100936.86;1754176;80;21034;-77
2022/10/28 06:05:55;;;;;;;23.27;11.60;;;;;;;11.34;97.25;100939.09;1755877;80;21621;-76
2022/10/28 06:08:22;;;;;;;18.90;12.35;;;;;;;11.40;97.19;100948.98;1707987;81;21039;-77
2022/10/28 06:10:51;;;;;;;14.53;11.65;;;;;;;11.43;96.88;100950.38;1754177;81;21225;-78
2022/10/28 06:13:19;;;;;;;12.28;11.08;;;;;;;11.42;96.73;100956.81;1761601;80;21048;-81
2022/10/28 06:15:54;;;;;;;18.17;11.68;;;;;;;11.40;96.56;100958.92;1762228;80;21452;-76
2022/10/28 06:18:25;;;;;;;28.73;14.03;;;;;;;11.37;96.58;100956.14;1758821;80;21038;-78
2022/10/28 06:20:54;;;;;;;14.50;12.10;;;;;;;11.35;96.59;100954.21;1704137;81;21631;-76
2022/10/28 06:23:22;;;;;;;20.12;11.85;;;;;;;11.35;96.61;100960.95;1755671;80;21103;-78
2022/10/28 06:25:48;;;;;;;16.75;12.88;;;;;;;11.37;96.70;100959.66;1757696;80;20994;-77
2022/10/28 06:28:15;;;;;;;15.50;12.20;;;;;;;11.39;96.71;100968.87;1763282;80;21096;-80
2022/10/28 06:30:42;;;;;;;17.15;12.63;;;;;;;11.41;96.65;100965.45;1709820;83;21061;-79
2022/10/28 06:33:09;;;;;;;21.60;12.35;;;;;;;11.40;96.58;100966.48;1719272;83;21650;-78
2022/10/28 06:35:35;;;;;;;21.45;13.50;;;;;;;11.42;96.64;100972.98;1724288;83;21108;-76
2022/10/28 06:38:04;;;;;;;19.17;14.07;;;;;;;11.41;96.74;100976.22;1727670;83;21017;-79
2022/10/28 06:40:35;;;;;;;17.85;13.08;;;;;;;11.40;96.60;100971.88;1703145;83;21008;-78
2022/10/28 06:43:04;;;;;;;16.95;15.13;;;;;;;11.41;96.78;100971.36;1725238;82;21003;-80
2022/10/28 06:45:33;;;;;;;15.32;12.82;;;;;;;11.45;96.99;100971.20;1726298;83;21508;-76
2022/10/28 06:48:05;;;;;;;14.58;12.88;;;;;;;11.50;97.01;100966.80;1726523;83;21037;-80
2022/10/28 06:50:34;;;;;;;14.87;13.10;;;;;;;11.58;96.86;100969.70;1729812;83;21489;-78
2022/10/28 06:53:01;;;;;;;16.62;13.28;;;;;;;11.61;96.68;100966.55;1725959;82;21582;-79
2022/10/28 06:55:29;;;;;;;23.12;13.05;;;;;;;11.65;96.60;100965.06;1729541;83;21516;-78
2022/10/28 06:57:59;;;;;;;18.73;13.22;;;;;;;11.67;96.35;100968.34;1725078;83;21110;-78
2022/10/28 07:00:26;;;;;;;16.95;12.43;;;;;;;11.70;96.27;100965.22;1705066;83;22241;-79
2022/10/28 07:02:53;;;;;;;17.87;13.43;;;;;;;11.73;96.09;100962.09;1700357;83;20985;-82
2022/10/28 07:05:21;;;;;;;29.18;16.52;;;;;;;11.76;96.01;100957.58;1704935;84;21571;-78
2022/10/28 07:07:59;;;;;;;20.17;12.05;;;;;;;11.80;95.85;100952.03;1701377;83;21481;-76
2022/10/28 07:10:25;;;;;;;15.55;12.45;;;;;;;11.86;95.49;100948.95;1718362;83;20988;-75
2022/10/28 07:12:52;;;;;;;20.20;14.33;;;;;;;11.88;95.37;100949.05;1694500;83;21330;-77
2022/10/28 07:15:20;;;;;;;13.20;10.88;;;;;;;11.93;95.20;100952.41;1711899;83;21062;-78
2022/10/28 07:17:55;;;;;;;18.02;12.75;;;;;;;11.98;94.74;100957.41;1710934;83;21054;-78
2022/10/28 07:20:23;;;;;;;19.25;13.65;;;;;;;11.97;94.57;100954.94;1704110;83;21048;-80
2022/10/28 07:22:57;;;;;;;16.60;12.00;;;;;;;11.99;94.43;100957.69;1711931;83;21113;-77
2022/10/28 07:25:25;;;;;;;21.90;11.78;;;;;;;12.03;94.28;100950.81;1709205;84;21164;-77
2022/10/28 07:27:52;;;;;;;22.10;13.05;;;;;;;12.09;94.17;100947.70;1714000;83;21027;-79
2022/10/28 07:30:20;;;;;;;23.40;14.63;;;;;;;12.11;94.03;100951.83;1713919;83;21098;-78
2022/10/28 07:32:48;;;;;;;20.32;12.65;;;;;;;12.08;93.63;100944.21;1710671;83;21524;-77
2022/10/28 07:35:15;;;;;;;22.87;15.10;;;;;;;12.05;93.63;100945.17;1704913;83;21050;-80
2022/10/28 07:37:41;;;;;;;18.30;12.37;;;;;;;12.05;93.94;100944.65;1763703;80;21103;-78
2022/10/28 07:40:10;;;;;;;16.50;12.60;;;;;;;12.13;94.18;100938.13;1712539;83;21582;-75
2022/10/28 07:42:36;;;;;;;15.98;11.15;;;;;;;12.22;94.00;100933.53;1719288;83;20970;-76
2022/10/28 07:45:06;;;;;;;18.62;11.40;;;;;;;12.30;93.88;100932.36;1722760;82;21011;-74
2022/10/28 07:47:34;;;;;;;20.88;11.85;;;;;;;12.37;93.08;100931.75;1719516;83;20982;-77
2022/10/28 07:50:00;;;;;;;14.55;10.53;;;;;;;12.40;92.60;100930.45;1694696;83;21217;-76
2022/10/28 07:52:28;;;;;;;13.18;10.78;;;;;;;12.46;92.00;100939.80;1703669;83;20931;-75
2022/10/28 07:54:56;;;;;;;15.35;12.10;;;;;;;12.45;91.20;100943.55;1674996;84;20986;-74
2022/10/28 07:57:26;;;;;;;15.18;10.08;;;;;;;12.45;91.32;100944.08;1703615;84;20979;-75
2022/10/28 07:59:55;;;;;;;17.62;9.98;;;;;;;12.51;91.07;100948.03;1709601;83;21599;-78
2022/10/28 08:02:23;;;;;;;14.83;10.63;;;;;;;12.58;90.89;100945.20;1712366;83;21489;-76
2022/10/28 08:04:50;;;;;;;18.37;10.98;;;;;;;12.65;90.60;100947.28;1715972;83;20956;-77
2022/10/28 08:07:17;;;;;;;18.60;11.15;;;;;;;12.72;90.08;100949.33;1664620;83;21110;-77
2022/10/28 08:09:44;;;;;;;16.70;12.65;;;;;;;12.78;89.98;100944.36;1705704;83;21023;-80
2022/10/28 08:12:14;;;;;;;14.47;10.93;;;;;;;12.85;89.73;100943.73;1712661;83;21071;-78
2022/10/28 08:14:41;;;;;;;22.82;12.88;;;;;;;12.91;89.36;100945.47;1711853;83;21134;-78
2022/10/28 08:17:08;;;;;;;13.15;11.22;;;;;;;12.95;89.00;100949.90;1709089;83;21300;-79
2022/10/28 08:19:35;;;;;;;13.30;9.00;;;;;;;12.97;88.46;100948.59;1709885;83;21076;-80
2022/10/28 08:22:03;;;;;;;16.97;12.00;;;;;;;13.00;87.42;100946.77;1716307;83;21099;-78
2022/10/28 08:24:29;;;;;;;15.15;12.88;;;;;;;13.03;87.29;100939.56;1711316;83;21080;-77
2022/10/28 08:26:56;;;;;;;18.80;10.25;;;;;;;13.07;87.05;100946.13;1707395;83;21287;-76
2022/10/28 08:29:24;;;;;;;13.03;9.53;;;;;;;13.16;86.74;100951.20;1699971;83;21025;-80
2022/10/28 08:31:51;;;;;;;13.38;10.50;;;;;;;13.20;86.29;100939.69;1675322;85;21555;-78
2022/10/28 08:34:18;;;;;;;9.55;8.15;;;;;;;13.27;86.16;100940.92;1727275;83;21742;-80
2022/10/28 08:36:45;;;;;;;10.70;9.45;;;;;;;13.33;85.42;100946.18;1755618;80;21028;-80
2022/10/28 08:39:13;;;;;;;16.20;8.75;;;;;;;13.32;84.27;100939.69;1755382;80;21876;-79
2022/10/28 08:41:53;;;;;;;10.40;9.05;;;;;;;13.30;84.49;100943.97;1753648;80;21035;-76
2022/10/28 08:44:41;;;;;;;12.30;8.60;;;;;;;13.35;84.46;100945.43;1751530;80;21527;-77
2022/10/28 08:47:35;;;;;;;10.38;8.00;;;;;;;13.42;84.16;100948.84;1763193;81;21054;-81
2022/10/28 08:50:11;;;;;;;10.70;7.20;;;;;;;13.56;82.58;100949.92;1688703;84;20944;-80
2022/10/28 08:52:49;;;;;;;12.07;10.78;;;;;;;13.66;81.61;100949.61;1719472;83;21763;-76
2022/10/28 08:55:22;;;;;;;12.93;10.63;;;;;;;13.73;80.58;100952.98;1720805;83;20989;-78
2022/10/28 08:57:59;;;;;;;14.20;9.08;;;;;;;13.70;79.67;100950.77;1697726;82;21122;-76
2022/10/28 09:00:29;;;;;;;8.78;7.75;;;;;;;13.74;79.82;100950.58;1711695;83;21007;-77
2022/10/28 09:03:13;;;;;;;11.78;8.30;;;;;;;13.78;78.93;100946.33;1717370;83;21113;-79
2022/10/28 13:34:35;;;;;;;17.73;10.85;;;;;;;15.16;57.95;100795.34;1729265;80;23320;-72
2022/10/28 13:37:03;;;;;;;10.78;6.17;;;;;;;15.13;57.53;100795.03;1709016;83;21020;-72
2022/10/28 13:39:40;;;;;;;11.25;5.03;;;;;;;15.17;57.42;100796.16;1697830;83;21773;-71
2022/10/28 13:42:22;;;;;;;9.98;5.75;;;;;;;15.23;57.44;100793.80;1705149;83;21136;-78
2022/10/28 13:44:58;;;;;;;6.95;4.65;;;;;;;15.28;57.26;100791.97;1693574;83;20991;-74
2022/10/28 13:47:35;;;;;;;11.73;5.12;;;;;;;15.32;57.09;100797.70;1689323;83;20969;-82
2022/10/28 13:50:11;;;;;;;14.53;5.00;;;;;;;15.30;56.96;100790.34;1679269;83;20984;-79
2022/10/28 13:52:43;;;;;;;12.18;5.37;;;;;;;15.24;57.10;100789.48;1709569;82;21995;-74
2022/10/28 13:55:24;;;;;;;8.60;4.70;;;;;;;15.23;57.16;100786.49;1705580;82;20940;-83
2022/10/28 13:58:05;;;;;;;5.72;4.87;;;;;;;15.21;57.15;100785.91;1709458;83;20956;-79
2022/10/28 14:00:33;;;;;;;7.78;5.35;;;;;;;15.18;57.26;100789.67;1693912;83;21091;-78
2022/10/28 14:03:22;;;;;;;6.55;5.65;;;;;;;15.15;57.41;100788.30;1690122;83;21115;-72
2022/10/28 14:05:54;;;;;;;12.90;8.43;;;;;;;15.12;57.63;100786.08;1705626;82;21264;-74
2022/10/28 14:08:29;;;;;;;14.00;9.10;;;;;;;15.07;57.88;100781.95;1702525;83;21015;-75
2022/10/28 14:11:10;;;;;;;23.10;13.62;;;;;;;15.02;58.22;100785.95;1711787;83;21576;-81
2022/10/28 14:13:41;;;;;;;16.95;12.23;;;;;;;14.98;58.45;100776.70;1708717;82;21015;-76
2022/10/28 14:16:26;;;;;;;20.30;13.38;;;;;;;14.93;58.80;100783.94;1699387;84;21022;-69
2022/10/28 14:19:13;;;;;;;17.48;10.75;;;;;;;14.88;59.05;100779.80;1697673;83;21152;-71
2022/10/28 14:22:05;;;;;;;19.00;11.48;;;;;;;14.80;59.37;100772.42;1684926;82;20929;-71
2022/10/28 14:24:41;;;;;;;24.75;13.08;;;;;;;14.72;59.82;100771.47;1662350;86;21040;-69
2022/10/28 14:27:14;;;;;;;21.75;13.08;;;;;;;14.65;60.07;100774.09;1658140;85;21162;-69
2022/10/28 14:29:57;;;;;;;18.98;13.45;;;;;;;14.59;60.30;100779.97;1662781;86;21606;-70
2022/10/28 14:32:39;;;;;;;21.20;11.68;;;;;;;14.50;60.67;100769.81;1633854;86;21154;-74
2022/10/28 14:35:19;;;;;;;19.25;11.73;;;;;;;14.44;61.04;100774.86;1654578;85;20948;-71
2022/10/28 14:38:11;;;;;;;19.30;11.45;;;;;;;14.36;61.25;100770.17;1645883;86;21062;-70
2022/10/28 14:40:53;;;;;;;23.47;12.05;;;;;;;14.31;61.60;100770.59;1650917;85;21403;-71
2022/10/28 14:43:59;;;;;;;18.07;10.08;;;;;;;14.23;61.98;100767.78;1654051;85;21015;-74
2022/10/28 14:46:47;;;;;;;19.15;7.83;;;;;;;14.16;62.30;100769.83;1615395;87;21611;-76
2022/10/28 14:49:27;;;;;;;14.80;9.85;;;;;;;14.09;62.77;100769.72;1590022;88;21130;-79
2022/10/28 14:51:53;;;;;;;17.95;9.48;;;;;;;14.04;63.10;100761.52;1650080;85;22212;-68
2022/10/28 14:54:36;;;;;;;13.65;7.80;;;;;;;13.99;63.47;100763.61;1657764;86;21617;-73
2022/10/28 14:57:04;;;;;;;15.55;9.15;;;;;;;13.93;63.74;100764.05;1657055;85;21052;-72
2022/10/28 14:59:38;;;;;;;18.17;8.18;;;;;;;13.88;64.05;100764.50;1633625;85;21520;-77
2022/10/28 15:02:17;;;;;;;15.50;10.18;;;;;;;13.83;64.43;100770.64;1656884;85;21059;-75
2022/10/28 15:04:45;;;;;;;19.87;8.80;;;;;;;13.78;64.76;100764.33;1655849;85;21026;-78
2022/10/28 15:07:15;;;;;;;15.32;8.35;;;;;;;13.73;65.07;100761.00;1656204;85;21085;-79
2022/10/28 15:09:44;;;;;;;12.23;7.97;;;;;;;13.70;65.34;100760.67;1651344;86;21039;-78
2022/10/28 15:12:14;;;;;;;14.18;9.08;;;;;;;13.66;65.57;100763.59;1656369;85;21868;-74
2022/10/28 15:14:54;;;;;;;17.15;10.18;;;;;;;13.61;65.89;100764.31;1650874;85;21062;-72
2022/10/28 15:17:31;;;;;;;12.95;8.00;;;;;;;13.56;66.22;100761.52;1657647;85;20980;-74
2022/10/28 15:19:59;;;;;;;16.40;7.22;;;;;;;13.53;66.37;100753.88;1646357;85;21126;-70
2022/10/28 15:22:31;;;;;;;16.73;11.65;;;;;;;13.50;66.51;100756.55;1656027;85;21048;-73
2022/10/28 15:25:05;;;;;;;12.88;7.55;;;;;;;13.47;66.63;100755.70;1637254;85;21102;-72
2022/10/28 15:27:35;;;;;;;20.30;9.03;;;;;;;13.45;66.82;100765.09;1637226;85;21094;-73
2022/10/28 15:30:04;;;;;;;18.20;12.13;;;;;;;13.42;67.00;100758.31;1618853;86;21055;-77
2022/10/28 15:32:33;;;;;;;14.93;10.45;;;;;;;13.40;67.19;100755.02;1642704;85;21018;-73
2022/10/28 15:35:29;;;;;;;40.17;16.23;;;;;;;13.38;67.27;100753.07;1671714;84;21083;-80
2022/10/28 15:37:59;;;;;;;18.23;12.18;;;;;;;13.36;67.44;100752.51;1654379;84;21098;-75
2022/10/28 15:40:31;;;;;;;21.02;12.13;;;;;;;13.33;67.66;100750.27;1647606;85;21065;-82
2022/10/28 15:43:05;;;;;;;19.67;12.95;;;;;;;13.32;67.84;100754.06;1662833;84;21755;-76
2022/10/28 15:45:34;;;;;;;20.65;12.82;;;;;;;13.30;67.97;100748.06;1648772;84;20992;-78
2022/10/28 15:48:03;;;;;;;16.15;10.15;;;;;;;13.29;68.10;100750.47;1652191;85;21033;-82
2022/10/28 15:50:32;;;;;;;13.50;10.35;;;;;;;13.29;68.23;100748.30;1672639;85;21120;-85
2022/10/28 15:53:19;;;;;;;16.40;10.98;;;;;;;13.28;68.42;100743.98;1676114;84;21689;-84
2022/10/28 15:55:46;;;;;;;13.05;9.83;;;;;;;13.27;68.53;100745.86;1674306;84;21589;-72
2022/10/28 15:58:18;;;;;;;17.05;12.07;;;;;;;13.26;68.65;100748.27;1669166;84;21122;-73
2022/10/28 16:00:55;;;;;;;17.25;11.28;;;;;;;13.25;68.85;100742.56;1640458;85;21038;-74
2022/10/28 16:03:44;;;;;;;26.65;17.70;;;;;;;13.24;68.92;100740.91;1628740;87;21864;-72